Hovedside
METAR-TAF:

METAR-TAF

Lufthavner :

Nikola Tesla lufthavn

Beograd, Serbia

breddegrad: 44-49N, lengdegrad: 020-17E, høyde over havet: 96 m

Gjeldene værobservasjon

Denne rapporten ble laget for 19 minutter siden, klokken 17:30 UTC
Vind 6 kt fra Nord-nordvest
Temperatur 18°C
Luftfuktighet 52%
Trykk 1019 hPa
Sikt 10 km eller mer
ingen skyer under 1500 m og ingen bygeskyer

METAR: LYBE 231730Z 34006KT CAVOK 18/08 Q1019 NOSIG

Tid: 19:49 (17:49 UTC)

Varsel

Denne rapporten ble laget for 49 minutter siden, klokken 17:00 UTC
Varsel gyldig fra 23. klokken 18 UTC til 24. klokken 18 UTC
Vind 8 kt fra Vest-nordvest
Sikt 10 km eller mer
ingen skyer under 1500 m og ingen bygeskyer

TAF: LYBE 231700Z 2318/2418 29008KT CAVOK TX22/2413Z TN11/2403Z

Værobservasjoner og værvarsel for over 4000 flyplasser (METAR- og TAF-rapporter).

Tilgjengelige stasjoner er representert av de røde og gule prikkene på kartet.

Hold musepekeren over prikken for å se navnet på stasjonen.

Klikk så for å se værobservasjoner og -varsler.

For å forandre kartet kan du klikke på den grønne knappen med svart kryss for å zoome inn, på den grønne knappen med strek for å zoome ut, eller på de grønne pilene for å se tilstøtende kart.


METAR-TAF: